M/V Oriole — WDE6982 — position and weather

sailwx.info

Track history (hours):
 
Tides and Currents Weather Stations Pressure Air Temp Water Temp Dewpoint Dewpoint Depression Visibility Wind Speed Wind Dir Waves Ship Positions

M/V Oriole

Owner: NATIVE SON INC., ST. THOMAS, VI. More information available from US FCC via Universal Licensing System and Coast Guard Vessel Documentation Center.

Last reported at 2016-Feb-13 20:32 UTC. Time now 2016-Feb-13 21:27 UTC.
Position N 18°22' W 064°47'.

Length 25 m.

Type: Passenger vessel. MMSI: 366755670.

Date/timePositionNaut miles runAvg speedWind from/ knotsBaromVisibWave heightAir tempDewpointWater temp
2016-Feb-13 20:32N 18°22' W 064°47'3 1.0
2016-Feb-13 17:17N 18°20' W 064°50'8 8.2
2016-Feb-13 16:21N 18°23' W 064°42'8 3.9
2016-Feb-13 14:18N 18°20' W 064°50'7 8.9
2016-Feb-13 13:32N 18°23' W 064°43'7 5.9
2016-Feb-13 12:22N 18°20' W 064°50'2 2.4
2016-Feb-13 11:28N 18°20' W 064°48'8 0.5
2016-Feb-12 19:33N 18°23' W 064°40'8 1.6
2016-Feb-12 14:22N 18°20' W 064°49'13 3.1
2016-Feb-12 10:14N 18°25' W 064°36'6 0.3
2016-Feb-11 16:31N 18°23' W 064°42'6 1.2
2016-Feb-11 11:10N 18°20' W 064°48'7 0.5
2016-Feb-10 22:32N 18°23' W 064°41'7 7.2
2016-Feb-10 21:33N 18°21' W 064°48'1 1.2
2016-Feb-10 20:28N 18°20' W 064°48'4 4.3
2016-Feb-10 19:33N 18°23' W 064°45'5 2.2
2016-Feb-10 17:11N 18°20' W 064°49'710.6
2016-Feb-10 16:33N 18°23' W 064°43'7 1.9
2016-Feb-10 13:06N 18°20' W 064°49'711.5
2016-Feb-10 12:31N 18°23' W 064°43'8 6.9
2016-Feb-10 11:25N 18°20' W 064°50'12 0.9
2016-Feb-09 22:06N 18°24' W 064°38'10 6.4
2016-Feb-09 20:33N 18°20' W 064°48'2 0.6
2016-Feb-09 17:15N 18°20' W 064°50'810.4
2016-Feb-09 16:29N 18°23' W 064°42'0 0.0
2016-Feb-09 12:30N 18°23' W 064°42'0 0.0
2016-Feb-08 12:27N 18°23' W 064°42'6 5.5
2016-Feb-08 11:20N 18°20' W 064°48'7 7.8
2016-Feb-08 10:29N 18°23' W 064°41'4 0.1
2016-Feb-06 21:32N 18°22' W 064°46'3 2.6
2016-Feb-06 20:19N 18°20' W 064°48'6 7.1
2016-Feb-06 19:27N 18°23' W 064°42'3 3.4
2016-Feb-06 18:33N 18°23' W 064°39'11 2.2
2016-Feb-06 13:29N 18°20' W 064°50'8 4.0
2016-Feb-06 11:23N 18°23' W 064°42'0 0.0
2016-Feb-06 10:32N 18°23' W 064°42'4 0.2
2016-Feb-05 19:33N 18°24' W 064°38'11 2.1
2016-Feb-05 14:22N 18°20' W 064°49'13 0.7
2016-Feb-04 20:08N 18°25' W 064°37'5 8.3
2016-Feb-04 19:29N 18°23' W 064°42'9 1.4
2016-Feb-04 13:27N 18°20' W 064°50'5 4.6
2016-Feb-04 12:19N 18°22' W 064°46'4 4.9
2016-Feb-04 11:32N 18°20' W 064°49'7 7.1
2016-Feb-04 10:32N 18°23' W 064°42'0 0.0
2016-Feb-03 21:33N 18°23' W 064°42'8 7.7
2016-Feb-03 20:33N 18°20' W 064°49'  
Track history (hours):
 
Tides and Currents Weather Stations Pressure Air Temp Water Temp Dewpoint Dewpoint Depression Visibility Wind Speed Wind Dir Waves Ship Positions

M/V Oriole

Owner: NATIVE SON INC., ST. THOMAS, VI. More information available from US FCC via Universal Licensing System and Coast Guard Vessel Documentation Center.

Last reported at 2016-Feb-13 20:32 UTC. Time now 2016-Feb-13 21:27 UTC.
Position N 18°22' W 064°47'.

Length 25 m.

Type: Passenger vessel. MMSI: 366755670.

Date/timePositionNaut miles runAvg speedWind from/ knotsBaromVisibWave heightAir tempDewpointWater temp
2016-Feb-13 20:32N 18°22' W 064°47'3 1.0
2016-Feb-13 17:17N 18°20' W 064°50'8 8.2
2016-Feb-13 16:21N 18°23' W 064°42'8 3.9
2016-Feb-13 14:18N 18°20' W 064°50'7 8.9
2016-Feb-13 13:32N 18°23' W 064°43'7 5.9
2016-Feb-13 12:22N 18°20' W 064°50'2 2.4
2016-Feb-13 11:28N 18°20' W 064°48'8 0.5
2016-Feb-12 19:33N 18°23' W 064°40'8 1.6
2016-Feb-12 14:22N 18°20' W 064°49'13 3.1
2016-Feb-12 10:14N 18°25' W 064°36'6 0.3
2016-Feb-11 16:31N 18°23' W 064°42'6 1.2
2016-Feb-11 11:10N 18°20' W 064°48'7 0.5
2016-Feb-10 22:32N 18°23' W 064°41'7 7.2
2016-Feb-10 21:33N 18°21' W 064°48'1 1.2
2016-Feb-10 20:28N 18°20' W 064°48'4 4.3
2016-Feb-10 19:33N 18°23' W 064°45'5 2.2
2016-Feb-10 17:11N 18°20' W 064°49'710.6
2016-Feb-10 16:33N 18°23' W 064°43'7 1.9
2016-Feb-10 13:06N 18°20' W 064°49'711.5
2016-Feb-10 12:31N 18°23' W 064°43'8 6.9
2016-Feb-10 11:25N 18°20' W 064°50'12 0.9
2016-Feb-09 22:06N 18°24' W 064°38'10 6.4
2016-Feb-09 20:33N 18°20' W 064°48'2 0.6
2016-Feb-09 17:15N 18°20' W 064°50'810.4
2016-Feb-09 16:29N 18°23' W 064°42'0 0.0
2016-Feb-09 12:30N 18°23' W 064°42'0 0.0
2016-Feb-08 12:27N 18°23' W 064°42'6 5.5
2016-Feb-08 11:20N 18°20' W 064°48'7 7.8
2016-Feb-08 10:29N 18°23' W 064°41'4 0.1
2016-Feb-06 21:32N 18°22' W 064°46'3 2.6
2016-Feb-06 20:19N 18°20' W 064°48'6 7.1
2016-Feb-06 19:27N 18°23' W 064°42'3 3.4
2016-Feb-06 18:33N 18°23' W 064°39'11 2.2
2016-Feb-06 13:29N 18°20' W 064°50'8 4.0
2016-Feb-06 11:23N 18°23' W 064°42'0 0.0
2016-Feb-06 10:32N 18°23' W 064°42'4 0.2
2016-Feb-05 19:33N 18°24' W 064°38'11 2.1
2016-Feb-05 14:22N 18°20' W 064°49'13 0.7
2016-Feb-04 20:08N 18°25' W 064°37'5 8.3
2016-Feb-04 19:29N 18°23' W 064°42'9 1.4
2016-Feb-04 13:27N 18°20' W 064°50'5 4.6
2016-Feb-04 12:19N 18°22' W 064°46'4 4.9
2016-Feb-04 11:32N 18°20' W 064°49'7 7.1
2016-Feb-04 10:32N 18°23' W 064°42'0 0.0
2016-Feb-03 21:33N 18°23' W 064°42'8 7.7
2016-Feb-03 20:33N 18°20' W 064°49'  

Dump ship's entire track history